sensor_id;sensor_type;location;lat;lon;timestamp;P1;durP1;ratioP1;P2;durP2;ratioP2
10056;SDS011;5068;51.286;7.518;2022-11-11T00:00:20;3.50;;;1.73;;
10056;SDS011;5068;51.286;7.518;2022-11-11T00:02:14;3.17;;;1.10;;
10056;SDS011;5068;51.286;7.518;2022-11-11T00:04:09;2.55;;;1.00;;
10056;SDS011;5068;51.286;7.518;2022-11-11T00:06:02;2.40;;;1.20;;
10056;SDS011;5068;51.286;7.518;2022-11-11T00:07:57;4.45;;;1.48;;
10056;SDS011;5068;51.286;7.518;2022-11-11T00:09:51;2.63;;;1.25;;
10056;SDS011;5068;51.286;7.518;2022-11-11T00:11:44;1.65;;;1.13;;
10056;SDS011;5068;51.286;7.518;2022-11-11T00:13:37;3.42;;;0.90;;
10056;SDS011;5068;51.286;7.518;2022-11-11T00:15:35;2.85;;;1.00;;
10056;SDS011;5068;51.286;7.518;2022-11-11T00:17:30;2.60;;;1.20;;
10056;SDS011;5068;51.286;7.518;2022-11-11T00:19:43;3.80;;;1.30;;
10056;SDS011;5068;51.286;7.518;2022-11-11T00:21:54;2.38;;;1.30;;
10056;SDS011;5068;51.286;7.518;2022-11-11T00:24:05;4.53;;;1.45;;
10056;SDS011;5068;51.286;7.518;2022-11-11T00:26:32;3.22;;;1.38;;
10056;SDS011;5068;51.286;7.518;2022-11-11T00:28:30;4.10;;;1.25;;
10056;SDS011;5068;51.286;7.518;2022-11-11T00:30:24;4.68;;;1.55;;
10056;SDS011;5068;51.286;7.518;2022-11-11T00:32:17;4.07;;;1.52;;
10056;SDS011;5068;51.286;7.518;2022-11-11T00:34:18;4.13;;;1.27;;
10056;SDS011;5068;51.286;7.518;2022-11-11T00:36:12;3.60;;;1.45;;
10056;SDS011;5068;51.286;7.518;2022-11-11T00:38:05;3.50;;;1.08;;
10056;SDS011;5068;51.286;7.518;2022-11-11T00:40:00;5.80;;;1.38;;
10056;SDS011;5068;51.286;7.518;2022-11-11T00:41:52;4.85;;;1.75;;
10056;SDS011;5068;51.286;7.518;2022-11-11T00:43:45;3.63;;;1.55;;
10056;SDS011;5068;51.286;7.518;2022-11-11T00:45:39;3.33;;;1.33;;
10056;SDS011;5068;51.286;7.518;2022-11-11T00:47:33;2.55;;;1.40;;
10056;SDS011;5068;51.286;7.518;2022-11-11T00:49:44;3.28;;;1.33;;
10056;SDS011;5068;51.286;7.518;2022-11-11T00:51:56;3.35;;;1.42;;
10056;SDS011;5068;51.286;7.518;2022-11-11T00:53:49;2.75;;;1.67;;
10056;SDS011;5068;51.286;7.518;2022-11-11T00:55:43;3.83;;;1.60;;
10056;SDS011;5068;51.286;7.518;2022-11-11T00:57:36;3.33;;;1.45;;
10056;SDS011;5068;51.286;7.518;2022-11-11T00:59:29;5.28;;;1.30;;
10056;SDS011;5068;51.286;7.518;2022-11-11T01:01:23;3.70;;;1.50;;
10056;SDS011;5068;51.286;7.518;2022-11-11T01:03:16;3.80;;;1.70;;
10056;SDS011;5068;51.286;7.518;2022-11-11T01:05:09;2.15;;;1.42;;
10056;SDS011;5068;51.286;7.518;2022-11-11T01:07:04;4.82;;;1.60;;
10056;SDS011;5068;51.286;7.518;2022-11-11T01:08:57;4.40;;;1.48;;
10056;SDS011;5068;51.286;7.518;2022-11-11T01:10:56;4.88;;;1.83;;
10056;SDS011;5068;51.286;7.518;2022-11-11T01:12:52;1.88;;;1.13;;
10056;SDS011;5068;51.286;7.518;2022-11-11T01:15:02;3.33;;;1.20;;
10056;SDS011;5068;51.286;7.518;2022-11-11T01:16:56;3.30;;;1.38;;
10056;SDS011;5068;51.286;7.518;2022-11-11T01:18:50;4.13;;;1.30;;
10056;SDS011;5068;51.286;7.518;2022-11-11T01:20:44;3.22;;;1.48;;
10056;SDS011;5068;51.286;7.518;2022-11-11T01:22:39;2.45;;;1.25;;
10056;SDS011;5068;51.286;7.518;2022-11-11T01:24:33;3.10;;;1.65;;
10056;SDS011;5068;51.286;7.518;2022-11-11T01:26:26;3.50;;;1.70;;
10056;SDS011;5068;51.286;7.518;2022-11-11T01:28:22;1.85;;;1.25;;
10056;SDS011;5068;51.286;7.518;2022-11-11T01:30:15;6.15;;;1.58;;
10056;SDS011;5068;51.286;7.518;2022-11-11T01:32:09;4.07;;;1.33;;
10056;SDS011;5068;51.286;7.518;2022-11-11T01:34:02;3.70;;;1.08;;
10056;SDS011;5068;51.286;7.518;2022-11-11T01:36:00;6.22;;;1.40;;
10056;SDS011;5068;51.286;7.518;2022-11-11T01:37:57;4.30;;;1.60;;
10056;SDS011;5068;51.286;7.518;2022-11-11T01:39:50;3.80;;;1.70;;
10056;SDS011;5068;51.286;7.518;2022-11-11T01:41:44;4.00;;;1.10;;
10056;SDS011;5068;51.286;7.518;2022-11-11T01:43:37;4.00;;;1.60;;
10056;SDS011;5068;51.286;7.518;2022-11-11T01:45:46;2.63;;;1.33;;
10056;SDS011;5068;51.286;7.518;2022-11-11T01:47:45;4.50;;;0.98;;
10056;SDS011;5068;51.286;7.518;2022-11-11T01:50:16;2.08;;;1.00;;
10056;SDS011;5068;51.286;7.518;2022-11-11T01:52:10;2.95;;;1.45;;
10056;SDS011;5068;51.286;7.518;2022-11-11T01:54:11;4.82;;;1.70;;
10056;SDS011;5068;51.286;7.518;2022-11-11T01:56:10;4.32;;;1.98;;
10056;SDS011;5068;51.286;7.518;2022-11-11T01:58:04;3.88;;;1.13;;
10056;SDS011;5068;51.286;7.518;2022-11-11T02:00:03;4.65;;;1.30;;
10056;SDS011;5068;51.286;7.518;2022-11-11T02:02:09;2.88;;;1.35;;
10056;SDS011;5068;51.286;7.518;2022-11-11T02:04:12;2.47;;;1.40;;
10056;SDS011;5068;51.286;7.518;2022-11-11T02:06:23;3.95;;;1.20;;
10056;SDS011;5068;51.286;7.518;2022-11-11T02:08:20;3.78;;;1.52;;
10056;SDS011;5068;51.286;7.518;2022-11-11T02:10:25;3.35;;;1.42;;
10056;SDS011;5068;51.286;7.518;2022-11-11T02:14:33;3.65;;;1.17;;
10056;SDS011;5068;51.286;7.518;2022-11-11T02:16:33;8.18;;;2.88;;
10056;SDS011;5068;51.286;7.518;2022-11-11T02:18:27;3.63;;;1.30;;
10056;SDS011;5068;51.286;7.518;2022-11-11T02:20:25;3.60;;;1.52;;
10056;SDS011;5068;51.286;7.518;2022-11-11T02:24:23;2.60;;;1.40;;
10056;SDS011;5068;51.286;7.518;2022-11-11T02:26:18;3.75;;;1.63;;
10056;SDS011;5068;51.286;7.518;2022-11-11T02:28:14;2.97;;;1.50;;
10056;SDS011;5068;51.286;7.518;2022-11-11T02:30:11;4.68;;;1.60;;
10056;SDS011;5068;51.286;7.518;2022-11-11T02:32:07;3.28;;;2.08;;
10056;SDS011;5068;51.286;7.518;2022-11-11T02:34:00;2.75;;;1.55;;
10056;SDS011;5068;51.286;7.518;2022-11-11T02:35:54;5.55;;;1.73;;
10056;SDS011;5068;51.286;7.518;2022-11-11T02:37:50;4.22;;;1.92;;
10056;SDS011;5068;51.286;7.518;2022-11-11T02:39:47;4.55;;;1.75;;
10056;SDS011;5068;51.286;7.518;2022-11-11T02:41:59;3.65;;;1.42;;
10056;SDS011;5068;51.286;7.518;2022-11-11T02:44:00;5.75;;;2.05;;
10056;SDS011;5068;51.286;7.518;2022-11-11T02:45:53;5.35;;;2.30;;
10056;SDS011;5068;51.286;7.518;2022-11-11T02:47:47;3.38;;;1.65;;
10056;SDS011;5068;51.286;7.518;2022-11-11T02:49:40;4.82;;;2.25;;
10056;SDS011;5068;51.286;7.518;2022-11-11T02:51:33;3.47;;;1.85;;
10056;SDS011;5068;51.286;7.518;2022-11-11T02:53:26;4.38;;;2.10;;
10056;SDS011;5068;51.286;7.518;2022-11-11T02:55:22;4.15;;;1.58;;
10056;SDS011;5068;51.286;7.518;2022-11-11T02:57:15;3.85;;;2.05;;
10056;SDS011;5068;51.286;7.518;2022-11-11T02:59:09;4.50;;;1.70;;
10056;SDS011;5068;51.286;7.518;2022-11-11T03:01:01;3.05;;;1.63;;
10056;SDS011;5068;51.286;7.518;2022-11-11T03:02:55;2.40;;;1.58;;
10056;SDS011;5068;51.286;7.518;2022-11-11T03:04:48;4.10;;;1.50;;
10056;SDS011;5068;51.286;7.518;2022-11-11T03:06:42;2.50;;;1.55;;
10056;SDS011;5068;51.286;7.518;2022-11-11T03:08:35;3.20;;;1.55;;
10056;SDS011;5068;51.286;7.518;2022-11-11T03:10:30;2.60;;;1.67;;
10056;SDS011;5068;51.286;7.518;2022-11-11T03:12:23;3.13;;;1.40;;
10056;SDS011;5068;51.286;7.518;2022-11-11T03:14:17;3.88;;;1.58;;
10056;SDS011;5068;51.286;7.518;2022-11-11T03:16:10;3.55;;;1.50;;
10056;SDS011;5068;51.286;7.518;2022-11-11T03:18:23;3.15;;;1.30;;
10056;SDS011;5068;51.286;7.518;2022-11-11T03:20:16;3.05;;;1.60;;
10056;SDS011;5068;51.286;7.518;2022-11-11T03:22:28;3.78;;;1.40;;
10056;SDS011;5068;51.286;7.518;2022-11-11T03:24:42;2.90;;;1.50;;
10056;SDS011;5068;51.286;7.518;2022-11-11T03:26:53;4.20;;;1.30;;
10056;SDS011;5068;51.286;7.518;2022-11-11T03:28:47;3.13;;;1.70;;
10056;SDS011;5068;51.286;7.518;2022-11-11T03:30:40;3.47;;;1.45;;
10056;SDS011;5068;51.286;7.518;2022-11-11T03:32:35;5.45;;;1.70;;
10056;SDS011;5068;51.286;7.518;2022-11-11T03:34:29;4.68;;;1.60;;
10056;SDS011;5068;51.286;7.518;2022-11-11T03:36:22;3.28;;;1.50;;
10056;SDS011;5068;51.286;7.518;2022-11-11T03:38:35;3.25;;;1.52;;
10056;SDS011;5068;51.286;7.518;2022-11-11T03:40:27;3.85;;;1.80;;
10056;SDS011;5068;51.286;7.518;2022-11-11T03:42:22;2.47;;;1.40;;
10056;SDS011;5068;51.286;7.518;2022-11-11T03:44:15;3.03;;;1.50;;
10056;SDS011;5068;51.286;7.518;2022-11-11T03:46:08;3.05;;;1.48;;
10056;SDS011;5068;51.286;7.518;2022-11-11T03:48:01;4.47;;;1.60;;
10056;SDS011;5068;51.286;7.518;2022-11-11T03:49:55;5.28;;;1.50;;
10056;SDS011;5068;51.286;7.518;2022-11-11T03:51:48;3.92;;;1.65;;
10056;SDS011;5068;51.286;7.518;2022-11-11T03:53:42;2.88;;;1.58;;
10056;SDS011;5068;51.286;7.518;2022-11-11T03:55:35;4.25;;;1.38;;
10056;SDS011;5068;51.286;7.518;2022-11-11T03:57:29;2.65;;;1.30;;
10056;SDS011;5068;51.286;7.518;2022-11-11T03:59:21;4.28;;;2.03;;
10056;SDS011;5068;51.286;7.518;2022-11-11T04:01:15;2.35;;;1.40;;
10056;SDS011;5068;51.286;7.518;2022-11-11T04:03:22;3.53;;;1.63;;
10056;SDS011;5068;51.286;7.518;2022-11-11T04:05:32;3.55;;;1.50;;
10056;SDS011;5068;51.286;7.518;2022-11-11T04:07:43;3.53;;;1.67;;
10056;SDS011;5068;51.286;7.518;2022-11-11T04:09:54;3.78;;;1.75;;
10056;SDS011;5068;51.286;7.518;2022-11-11T04:12:04;4.68;;;1.40;;
10056;SDS011;5068;51.286;7.518;2022-11-11T04:13:59;2.55;;;1.40;;
10056;SDS011;5068;51.286;7.518;2022-11-11T04:16:26;3.70;;;1.65;;
10056;SDS011;5068;51.286;7.518;2022-11-11T04:18:18;2.20;;;1.80;;
10056;SDS011;5068;51.286;7.518;2022-11-11T04:20:32;2.55;;;1.50;;
10056;SDS011;5068;51.286;7.518;2022-11-11T04:22:43;2.78;;;1.40;;
10056;SDS011;5068;51.286;7.518;2022-11-11T04:24:36;3.13;;;1.63;;
10056;SDS011;5068;51.286;7.518;2022-11-11T04:26:47;4.00;;;1.50;;
10056;SDS011;5068;51.286;7.518;2022-11-11T04:28:40;2.28;;;1.42;;
10056;SDS011;5068;51.286;7.518;2022-11-11T04:30:52;2.67;;;1.45;;
10056;SDS011;5068;51.286;7.518;2022-11-11T04:32:45;3.25;;;1.98;;
10056;SDS011;5068;51.286;7.518;2022-11-11T04:34:37;3.28;;;1.60;;
10056;SDS011;5068;51.286;7.518;2022-11-11T04:36:31;2.10;;;1.35;;
10056;SDS011;5068;51.286;7.518;2022-11-11T04:38:24;2.72;;;1.48;;
10056;SDS011;5068;51.286;7.518;2022-11-11T04:40:35;2.65;;;1.38;;
10056;SDS011;5068;51.286;7.518;2022-11-11T04:42:46;4.13;;;1.73;;
10056;SDS011;5068;51.286;7.518;2022-11-11T04:44:39;2.65;;;1.42;;
10056;SDS011;5068;51.286;7.518;2022-11-11T04:46:51;2.80;;;1.60;;
10056;SDS011;5068;51.286;7.518;2022-11-11T04:48:43;3.88;;;1.60;;
10056;SDS011;5068;51.286;7.518;2022-11-11T04:50:37;4.78;;;1.38;;
10056;SDS011;5068;51.286;7.518;2022-11-11T04:52:32;2.60;;;1.30;;
10056;SDS011;5068;51.286;7.518;2022-11-11T04:56:17;2.38;;;1.13;;
10056;SDS011;5068;51.286;7.518;2022-11-11T04:58:28;2.63;;;1.10;;
10056;SDS011;5068;51.286;7.518;2022-11-11T05:00:25;3.63;;;1.38;;
10056;SDS011;5068;51.286;7.518;2022-11-11T05:02:23;2.83;;;1.40;;
10056;SDS011;5068;51.286;7.518;2022-11-11T05:04:34;2.15;;;1.38;;
10056;SDS011;5068;51.286;7.518;2022-11-11T05:06:27;3.58;;;1.80;;
10056;SDS011;5068;51.286;7.518;2022-11-11T05:08:38;4.60;;;1.73;;
10056;SDS011;5068;51.286;7.518;2022-11-11T05:10:48;2.05;;;1.33;;
10056;SDS011;5068;51.286;7.518;2022-11-11T05:12:41;3.45;;;1.48;;
10056;SDS011;5068;51.286;7.518;2022-11-11T05:14:37;2.83;;;1.48;;
10056;SDS011;5068;51.286;7.518;2022-11-11T05:16:48;2.70;;;1.40;;
10056;SDS011;5068;51.286;7.518;2022-11-11T05:19:02;1.85;;;1.33;;
10056;SDS011;5068;51.286;7.518;2022-11-11T05:21:14;3.13;;;1.38;;
10056;SDS011;5068;51.286;7.518;2022-11-11T05:23:14;2.85;;;1.42;;
10056;SDS011;5068;51.286;7.518;2022-11-11T05:25:08;2.25;;;1.50;;
10056;SDS011;5068;51.286;7.518;2022-11-11T05:27:17;4.05;;;1.40;;
10056;SDS011;5068;51.286;7.518;2022-11-11T05:29:11;3.13;;;1.50;;
10056;SDS011;5068;51.286;7.518;2022-11-11T05:31:04;2.90;;;1.35;;
10056;SDS011;5068;51.286;7.518;2022-11-11T05:32:57;3.38;;;1.52;;
10056;SDS011;5068;51.286;7.518;2022-11-11T05:34:52;3.15;;;1.45;;
10056;SDS011;5068;51.286;7.518;2022-11-11T05:36:45;2.72;;;1.48;;
10056;SDS011;5068;51.286;7.518;2022-11-11T05:38:38;2.33;;;1.23;;
10056;SDS011;5068;51.286;7.518;2022-11-11T05:40:31;2.17;;;1.30;;
10056;SDS011;5068;51.286;7.518;2022-11-11T05:42:25;3.40;;;1.58;;
10056;SDS011;5068;51.286;7.518;2022-11-11T05:44:18;3.10;;;1.30;;
10056;SDS011;5068;51.286;7.518;2022-11-11T05:46:11;2.00;;;1.35;;
10056;SDS011;5068;51.286;7.518;2022-11-11T05:48:04;2.55;;;1.40;;
10056;SDS011;5068;51.286;7.518;2022-11-11T05:49:59;2.75;;;1.08;;
10056;SDS011;5068;51.286;7.518;2022-11-11T05:51:52;3.38;;;1.15;;
10056;SDS011;5068;51.286;7.518;2022-11-11T05:53:47;2.58;;;1.58;;
10056;SDS011;5068;51.286;7.518;2022-11-11T05:55:40;2.55;;;1.23;;
10056;SDS011;5068;51.286;7.518;2022-11-11T05:57:33;2.05;;;1.25;;
10056;SDS011;5068;51.286;7.518;2022-11-11T05:59:26;2.47;;;1.58;;
10056;SDS011;5068;51.286;7.518;2022-11-11T06:01:19;3.03;;;1.38;;
10056;SDS011;5068;51.286;7.518;2022-11-11T06:03:12;2.75;;;1.33;;
10056;SDS011;5068;51.286;7.518;2022-11-11T06:05:07;3.83;;;1.70;;
10056;SDS011;5068;51.286;7.518;2022-11-11T06:07:01;3.10;;;1.42;;
10056;SDS011;5068;51.286;7.518;2022-11-11T06:08:54;2.50;;;1.30;;
10056;SDS011;5068;51.286;7.518;2022-11-11T06:10:48;2.95;;;1.83;;
10056;SDS011;5068;51.286;7.518;2022-11-11T06:12:43;2.90;;;1.33;;
10056;SDS011;5068;51.286;7.518;2022-11-11T06:14:50;2.88;;;1.50;;
10056;SDS011;5068;51.286;7.518;2022-11-11T06:16:43;6.63;;;2.28;;
10056;SDS011;5068;51.286;7.518;2022-11-11T06:18:36;5.60;;;1.88;;
10056;SDS011;5068;51.286;7.518;2022-11-11T06:20:31;4.78;;;1.73;;
10056;SDS011;5068;51.286;7.518;2022-11-11T06:22:25;2.53;;;1.40;;
10056;SDS011;5068;51.286;7.518;2022-11-11T06:24:32;3.92;;;1.35;;
10056;SDS011;5068;51.286;7.518;2022-11-11T06:26:25;4.45;;;1.75;;
10056;SDS011;5068;51.286;7.518;2022-11-11T06:28:18;6.00;;;2.20;;
10056;SDS011;5068;51.286;7.518;2022-11-11T06:30:11;3.88;;;1.70;;
10056;SDS011;5068;51.286;7.518;2022-11-11T06:32:25;4.57;;;1.70;;
10056;SDS011;5068;51.286;7.518;2022-11-11T06:34:20;4.15;;;1.50;;
10056;SDS011;5068;51.286;7.518;2022-11-11T06:36:15;5.70;;;1.55;;
10056;SDS011;5068;51.286;7.518;2022-11-11T06:38:11;3.60;;;1.88;;
10056;SDS011;5068;51.286;7.518;2022-11-11T06:40:04;6.03;;;2.25;;
10056;SDS011;5068;51.286;7.518;2022-11-11T06:41:58;4.38;;;1.58;;
10056;SDS011;5068;51.286;7.518;2022-11-11T06:43:52;5.93;;;1.98;;
10056;SDS011;5068;51.286;7.518;2022-11-11T06:45:47;4.13;;;1.48;;
10056;SDS011;5068;51.286;7.518;2022-11-11T06:47:41;2.50;;;1.63;;
10056;SDS011;5068;51.286;7.518;2022-11-11T06:49:35;4.25;;;1.63;;
10056;SDS011;5068;51.286;7.518;2022-11-11T06:51:29;3.65;;;1.70;;
10056;SDS011;5068;51.286;7.518;2022-11-11T06:53:22;3.60;;;1.42;;
10056;SDS011;5068;51.286;7.518;2022-11-11T06:55:16;3.53;;;1.40;;
10056;SDS011;5068;51.286;7.518;2022-11-11T06:57:10;4.43;;;1.75;;
10056;SDS011;5068;51.286;7.518;2022-11-11T06:59:03;3.53;;;1.35;;
10056;SDS011;5068;51.286;7.518;2022-11-11T07:00:56;2.88;;;1.20;;
10056;SDS011;5068;51.286;7.518;2022-11-11T07:02:53;3.78;;;1.42;;
10056;SDS011;5068;51.286;7.518;2022-11-11T07:04:47;6.38;;;1.88;;
10056;SDS011;5068;51.286;7.518;2022-11-11T07:06:42;3.17;;;1.67;;
10056;SDS011;5068;51.286;7.518;2022-11-11T07:08:36;3.45;;;1.58;;
10056;SDS011;5068;51.286;7.518;2022-11-11T07:10:30;3.45;;;1.50;;
10056;SDS011;5068;51.286;7.518;2022-11-11T07:12:24;3.65;;;1.50;;
10056;SDS011;5068;51.286;7.518;2022-11-11T07:14:17;3.63;;;1.60;;
10056;SDS011;5068;51.286;7.518;2022-11-11T07:16:11;3.70;;;1.88;;
10056;SDS011;5068;51.286;7.518;2022-11-11T07:18:04;3.67;;;1.48;;
10056;SDS011;5068;51.286;7.518;2022-11-11T07:19:57;3.78;;;1.70;;
10056;SDS011;5068;51.286;7.518;2022-11-11T07:21:52;2.05;;;1.38;;
10056;SDS011;5068;51.286;7.518;2022-11-11T07:23:45;4.47;;;1.70;;
10056;SDS011;5068;51.286;7.518;2022-11-11T07:25:38;4.50;;;1.92;;
10056;SDS011;5068;51.286;7.518;2022-11-11T07:27:34;3.33;;;1.52;;
10056;SDS011;5068;51.286;7.518;2022-11-11T07:29:29;2.35;;;1.40;;
10056;SDS011;5068;51.286;7.518;2022-11-11T07:31:22;3.65;;;1.70;;
10056;SDS011;5068;51.286;7.518;2022-11-11T07:33:15;4.03;;;1.60;;
10056;SDS011;5068;51.286;7.518;2022-11-11T07:35:15;2.80;;;1.40;;
10056;SDS011;5068;51.286;7.518;2022-11-11T07:37:11;3.30;;;1.60;;
10056;SDS011;5068;51.286;7.518;2022-11-11T07:39:04;2.38;;;1.35;;
10056;SDS011;5068;51.286;7.518;2022-11-11T07:41:00;3.72;;;1.42;;
10056;SDS011;5068;51.286;7.518;2022-11-11T07:42:53;4.13;;;1.60;;
10056;SDS011;5068;51.286;7.518;2022-11-11T07:44:46;5.35;;;1.38;;
10056;SDS011;5068;51.286;7.518;2022-11-11T07:46:40;2.10;;;1.23;;
10056;SDS011;5068;51.286;7.518;2022-11-11T07:48:34;3.47;;;1.48;;
10056;SDS011;5068;51.286;7.518;2022-11-11T07:50:27;3.15;;;1.65;;
10056;SDS011;5068;51.286;7.518;2022-11-11T07:52:21;4.00;;;1.60;;
10056;SDS011;5068;51.286;7.518;2022-11-11T07:54:15;1.95;;;1.40;;
10056;SDS011;5068;51.286;7.518;2022-11-11T07:56:08;2.85;;;1.50;;
10056;SDS011;5068;51.286;7.518;2022-11-11T07:58:01;2.83;;;1.50;;
10056;SDS011;5068;51.286;7.518;2022-11-11T07:59:54;7.35;;;2.00;;
10056;SDS011;5068;51.286;7.518;2022-11-11T08:01:47;2.13;;;1.20;;
10056;SDS011;5068;51.286;7.518;2022-11-11T08:03:40;3.30;;;1.85;;
10056;SDS011;5068;51.286;7.518;2022-11-11T08:05:40;4.95;;;1.90;;
10056;SDS011;5068;51.286;7.518;2022-11-11T08:07:35;2.53;;;1.83;;
10056;SDS011;5068;51.286;7.518;2022-11-11T08:09:28;3.88;;;1.77;;
10056;SDS011;5068;51.286;7.518;2022-11-11T08:11:21;2.83;;;1.90;;
10056;SDS011;5068;51.286;7.518;2022-11-11T08:13:29;2.72;;;1.65;;
10056;SDS011;5068;51.286;7.518;2022-11-11T08:15:34;4.15;;;1.98;;
10056;SDS011;5068;51.286;7.518;2022-11-11T08:17:27;5.30;;;1.75;;
10056;SDS011;5068;51.286;7.518;2022-11-11T08:19:20;3.15;;;1.65;;
10056;SDS011;5068;51.286;7.518;2022-11-11T08:21:14;3.10;;;2.05;;
10056;SDS011;5068;51.286;7.518;2022-11-11T08:23:08;3.20;;;1.42;;
10056;SDS011;5068;51.286;7.518;2022-11-11T08:25:22;2.70;;;1.42;;
10056;SDS011;5068;51.286;7.518;2022-11-11T08:27:15;2.90;;;1.40;;
10056;SDS011;5068;51.286;7.518;2022-11-11T08:29:08;5.40;;;2.05;;
10056;SDS011;5068;51.286;7.518;2022-11-11T08:31:01;3.13;;;1.35;;
10056;SDS011;5068;51.286;7.518;2022-11-11T08:32:58;4.13;;;1.42;;
10056;SDS011;5068;51.286;7.518;2022-11-11T08:35:12;2.95;;;1.60;;
10056;SDS011;5068;51.286;7.518;2022-11-11T08:37:05;2.28;;;1.50;;
10056;SDS011;5068;51.286;7.518;2022-11-11T08:39:00;2.92;;;1.40;;
10056;SDS011;5068;51.286;7.518;2022-11-11T08:40:53;4.35;;;1.52;;
10056;SDS011;5068;51.286;7.518;2022-11-11T08:42:47;3.10;;;1.70;;
10056;SDS011;5068;51.286;7.518;2022-11-11T08:44:40;2.45;;;1.40;;
10056;SDS011;5068;51.286;7.518;2022-11-11T08:46:33;2.60;;;1.63;;
10056;SDS011;5068;51.286;7.518;2022-11-11T08:48:26;3.88;;;1.77;;
10056;SDS011;5068;51.286;7.518;2022-11-11T08:50:20;3.15;;;1.70;;
10056;SDS011;5068;51.286;7.518;2022-11-11T08:52:13;2.42;;;1.50;;
10056;SDS011;5068;51.286;7.518;2022-11-11T08:54:08;4.18;;;1.67;;
10056;SDS011;5068;51.286;7.518;2022-11-11T08:56:01;3.63;;;1.40;;
10056;SDS011;5068;51.286;7.518;2022-11-11T08:57:58;4.13;;;1.55;;
10056;SDS011;5068;51.286;7.518;2022-11-11T08:59:53;3.92;;;1.65;;
10056;SDS011;5068;51.286;7.518;2022-11-11T09:01:46;3.35;;;1.88;;
10056;SDS011;5068;51.286;7.518;2022-11-11T09:03:40;2.42;;;1.30;;
10056;SDS011;5068;51.286;7.518;2022-11-11T09:05:36;6.10;;;2.08;;
10056;SDS011;5068;51.286;7.518;2022-11-11T09:07:31;3.83;;;1.60;;
10056;SDS011;5068;51.286;7.518;2022-11-11T09:09:26;4.03;;;1.63;;
10056;SDS011;5068;51.286;7.518;2022-11-11T09:11:20;3.13;;;1.50;;
10056;SDS011;5068;51.286;7.518;2022-11-11T09:13:13;3.13;;;1.58;;
10056;SDS011;5068;51.286;7.518;2022-11-11T09:15:07;2.50;;;1.40;;
10056;SDS011;5068;51.286;7.518;2022-11-11T09:17:01;2.80;;;1.35;;
10056;SDS011;5068;51.286;7.518;2022-11-11T09:18:54;2.25;;;1.35;;
10056;SDS011;5068;51.286;7.518;2022-11-11T09:20:47;2.67;;;1.40;;
10056;SDS011;5068;51.286;7.518;2022-11-11T09:22:41;2.25;;;1.25;;
10056;SDS011;5068;51.286;7.518;2022-11-11T09:24:35;3.20;;;1.13;;
10056;SDS011;5068;51.286;7.518;2022-11-11T09:26:29;2.17;;;1.02;;
10056;SDS011;5068;51.286;7.518;2022-11-11T09:28:22;2.17;;;1.23;;
10056;SDS011;5068;51.286;7.518;2022-11-11T09:30:15;1.67;;;1.05;;
10056;SDS011;5068;51.286;7.518;2022-11-11T09:32:08;3.30;;;1.42;;
10056;SDS011;5068;51.286;7.518;2022-11-11T09:34:02;2.70;;;1.20;;
10056;SDS011;5068;51.286;7.518;2022-11-11T09:35:57;3.08;;;1.20;;
10056;SDS011;5068;51.286;7.518;2022-11-11T09:37:53;3.53;;;1.45;;
10056;SDS011;5068;51.286;7.518;2022-11-11T09:39:48;2.65;;;1.33;;
10056;SDS011;5068;51.286;7.518;2022-11-11T09:41:45;5.50;;;1.55;;
10056;SDS011;5068;51.286;7.518;2022-11-11T09:43:58;2.78;;;1.50;;
10056;SDS011;5068;51.286;7.518;2022-11-11T09:45:57;4.30;;;1.30;;
10056;SDS011;5068;51.286;7.518;2022-11-11T09:48:07;3.17;;;1.33;;
10056;SDS011;5068;51.286;7.518;2022-11-11T09:50:26;1.92;;;1.23;;
10056;SDS011;5068;51.286;7.518;2022-11-11T09:52:25;2.17;;;0.93;;
10056;SDS011;5068;51.286;7.518;2022-11-11T09:54:26;1.77;;;0.93;;
10056;SDS011;5068;51.286;7.518;2022-11-11T09:56:28;2.20;;;1.17;;
10056;SDS011;5068;51.286;7.518;2022-11-11T09:58:23;2.17;;;0.98;;
10056;SDS011;5068;51.286;7.518;2022-11-11T10:00:23;3.10;;;1.20;;
10056;SDS011;5068;51.286;7.518;2022-11-11T10:02:24;1.92;;;1.00;;
10056;SDS011;5068;51.286;7.518;2022-11-11T10:04:27;2.85;;;1.50;;
10056;SDS011;5068;51.286;7.518;2022-11-11T10:06:27;2.05;;;1.02;;
10056;SDS011;5068;51.286;7.518;2022-11-11T10:08:26;1.70;;;1.00;;
10056;SDS011;5068;51.286;7.518;2022-11-11T10:10:25;2.35;;;1.13;;
10056;SDS011;5068;51.286;7.518;2022-11-11T10:12:33;1.95;;;0.98;;
10056;SDS011;5068;51.286;7.518;2022-11-11T10:14:35;1.40;;;0.80;;
10056;SDS011;5068;51.286;7.518;2022-11-11T10:16:36;3.80;;;1.50;;
10056;SDS011;5068;51.286;7.518;2022-11-11T10:18:42;3.22;;;1.00;;
10056;SDS011;5068;51.286;7.518;2022-11-11T10:20:54;2.33;;;0.90;;
10056;SDS011;5068;51.286;7.518;2022-11-11T10:22:48;1.63;;;0.90;;
10056;SDS011;5068;51.286;7.518;2022-11-11T10:24:48;1.50;;;0.70;;
10056;SDS011;5068;51.286;7.518;2022-11-11T10:27:13;2.45;;;0.80;;
10056;SDS011;5068;51.286;7.518;2022-11-11T10:29:13;2.28;;;0.90;;
10056;SDS011;5068;51.286;7.518;2022-11-11T10:31:11;2.13;;;0.73;;
10056;SDS011;5068;51.286;7.518;2022-11-11T10:33:13;2.58;;;0.70;;
10056;SDS011;5068;51.286;7.518;2022-11-11T10:35:14;1.75;;;0.85;;
10056;SDS011;5068;51.286;7.518;2022-11-11T10:37:14;1.75;;;0.80;;
10056;SDS011;5068;51.286;7.518;2022-11-11T10:39:14;1.48;;;0.80;;
10056;SDS011;5068;51.286;7.518;2022-11-11T10:41:18;1.27;;;0.73;;
10056;SDS011;5068;51.286;7.518;2022-11-11T10:43:20;1.80;;;0.60;;
10056;SDS011;5068;51.286;7.518;2022-11-11T10:45:18;2.40;;;0.90;;
10056;SDS011;5068;51.286;7.518;2022-11-11T10:47:20;1.90;;;0.77;;
10056;SDS011;5068;51.286;7.518;2022-11-11T10:49:31;1.73;;;0.85;;
10056;SDS011;5068;51.286;7.518;2022-11-11T10:51:30;1.17;;;0.70;;
10056;SDS011;5068;51.286;7.518;2022-11-11T10:55:34;2.03;;;0.52;;
10056;SDS011;5068;51.286;7.518;2022-11-11T10:57:37;1.63;;;0.80;;
10056;SDS011;5068;51.286;7.518;2022-11-11T10:59:36;1.83;;;0.70;;
10056;SDS011;5068;51.286;7.518;2022-11-11T11:01:39;1.50;;;0.50;;
10056;SDS011;5068;51.286;7.518;2022-11-11T11:03:41;1.10;;;0.60;;
10056;SDS011;5068;51.286;7.518;2022-11-11T11:07:37;2.20;;;0.60;;
10056;SDS011;5068;51.286;7.518;2022-11-11T11:09:36;2.58;;;1.20;;
10056;SDS011;5068;51.286;7.518;2022-11-11T11:11:40;2.28;;;0.73;;
10056;SDS011;5068;51.286;7.518;2022-11-11T11:13:42;1.77;;;0.73;;
10056;SDS011;5068;51.286;7.518;2022-11-11T11:15:42;1.48;;;0.80;;
10056;SDS011;5068;51.286;7.518;2022-11-11T11:17:47;1.83;;;0.75;;
10056;SDS011;5068;51.286;7.518;2022-11-11T11:19:49;1.92;;;0.75;;
10056;SDS011;5068;51.286;7.518;2022-11-11T11:22:01;2.67;;;0.70;;
10056;SDS011;5068;51.286;7.518;2022-11-11T11:23:55;0.77;;;0.50;;
10056;SDS011;5068;51.286;7.518;2022-11-11T11:25:51;1.92;;;0.68;;
10056;SDS011;5068;51.286;7.518;2022-11-11T11:27:46;1.35;;;0.80;;
10056;SDS011;5068;51.286;7.518;2022-11-11T11:29:43;1.10;;;0.60;;
10056;SDS011;5068;51.286;7.518;2022-11-11T11:31:37;2.20;;;0.70;;
10056;SDS011;5068;51.286;7.518;2022-11-11T11:33:50;1.10;;;0.50;;
10056;SDS011;5068;51.286;7.518;2022-11-11T11:35:45;1.83;;;0.85;;
10056;SDS011;5068;51.286;7.518;2022-11-11T11:37:48;0.68;;;0.45;;
10056;SDS011;5068;51.286;7.518;2022-11-11T11:39:42;1.10;;;0.70;;
10056;SDS011;5068;51.286;7.518;2022-11-11T11:41:36;0.80;;;0.60;;
10056;SDS011;5068;51.286;7.518;2022-11-11T11:43:32;1.85;;;0.60;;
10056;SDS011;5068;51.286;7.518;2022-11-11T11:45:28;1.10;;;0.57;;
10056;SDS011;5068;51.286;7.518;2022-11-11T11:47:27;1.20;;;0.50;;
10056;SDS011;5068;51.286;7.518;2022-11-11T11:49:41;1.92;;;0.93;;
10056;SDS011;5068;51.286;7.518;2022-11-11T11:51:59;1.83;;;0.82;;
10056;SDS011;5068;51.286;7.518;2022-11-11T11:54:02;0.95;;;0.40;;
10056;SDS011;5068;51.286;7.518;2022-11-11T11:56:12;2.45;;;0.60;;
10056;SDS011;5068;51.286;7.518;2022-11-11T11:58:17;2.33;;;1.08;;
10056;SDS011;5068;51.286;7.518;2022-11-11T12:00:23;1.95;;;1.13;;
10056;SDS011;5068;51.286;7.518;2022-11-11T12:02:24;1.00;;;0.70;;
10056;SDS011;5068;51.286;7.518;2022-11-11T12:07:10;2.10;;;0.70;;
10056;SDS011;5068;51.286;7.518;2022-11-11T12:09:16;0.93;;;0.50;;
10056;SDS011;5068;51.286;7.518;2022-11-11T12:11:27;2.08;;;0.60;;
10056;SDS011;5068;51.286;7.518;2022-11-11T12:13:33;1.75;;;0.70;;